Time;durP1;ratioP1;P1;durP2;ratioP2;P2;SDS_P1;SDS_P2;PMS_P1;PMS_P2;Temp;Humidity;BMP_temperature;BMP_pressure;BME280_temperature;BME280_humidity;BME280_pressure;Samples;Min_cycle;Max_cycle;Signal;HPM_P1;HPM_P2
2022/05/15 00:03:56;;;;;;;11.75;6.07;;;;;;;;;;10381014;28;20026;-74
2022/05/15 00:08:58;;;;;;;8.05;5.38;;;;;;;;;;10343657;28;20041;-71
2022/05/15 00:13:59;;;;;;;8.88;6.13;;;;;;;;;;10361545;28;20525;-74
2022/05/15 00:18:59;;;;;;;10.77;6.90;;;;;;;;;;10345048;28;20156;-75
2022/05/15 00:23:59;;;;;;;11.40;6.10;;;;;;;;;;10350205;28;20052;-70
2022/05/15 00:29:00;;;;;;;11.65;7.35;;;;;;;;;;10388012;28;20025;-75
2022/05/15 00:34:00;;;;;;;10.30;6.10;;;;;;;;;;10385082;28;20420;-69
2022/05/15 00:39:00;;;;;;;10.95;7.35;;;;;;;;;;10403192;28;20030;-76
2022/05/15 00:44:01;;;;;;;18.60;7.67;;;;;;;;;;10384065;28;20122;-74
2022/05/15 00:49:04;;;;;;;10.00;7.15;;;;;;;;;;10401802;28;20037;-75
2022/05/15 00:54:09;;;;;;;15.68;6.95;;;;;;;;;;10401169;28;20288;-76
2022/05/15 00:59:15;;;;;;;11.55;7.40;;;;;;;;;;10383373;28;20105;-76
2022/05/15 01:04:15;;;;;;;15.35;7.82;;;;;;;;;;10383802;28;20041;-73
2022/05/15 01:09:16;;;;;;;11.37;7.87;;;;;;;;;;10405163;23;20442;-73
2022/05/15 01:14:18;;;;;;;14.70;7.60;;;;;;;;;;10382663;28;20029;-74
2022/05/15 01:19:29;;;;;;;13.23;7.70;;;;;;;;;;10383296;28;20113;-75
2022/05/15 01:24:30;;;;;;;13.20;8.80;;;;;;;;;;10399735;28;20025;-70
2022/05/15 01:29:32;;;;;;;11.55;8.63;;;;;;;;;;10382631;28;20036;-73
2022/05/15 01:34:32;;;;;;;12.48;8.60;;;;;;;;;;10381732;28;20025;-71
2022/05/15 01:39:33;;;;;;;13.00;8.32;;;;;;;;;;10382377;28;20479;-76
2022/05/15 01:44:33;;;;;;;12.93;8.93;;;;;;;;;;10382291;28;20039;-73
2022/05/15 01:49:34;;;;;;;12.52;8.38;;;;;;;;;;10381850;28;20668;-74
2022/05/15 01:54:34;;;;;;;13.40;9.23;;;;;;;;;;10398210;28;20532;-74
2022/05/15 01:59:34;;;;;;;16.33;8.98;;;;;;;;;;10397775;28;20078;-73
2022/05/15 02:04:34;;;;;;;13.75;9.00;;;;;;;;;;10381293;28;20064;-71
2022/05/15 02:09:35;;;;;;;13.23;9.55;;;;;;;;;;10399406;28;20096;-73
2022/05/15 02:14:35;;;;;;;16.77;11.33;;;;;;;;;;10380578;28;20026;-69
2022/05/15 02:19:35;;;;;;;17.70;10.05;;;;;;;;;;10381227;28;20024;-70
2022/05/15 02:24:36;;;;;;;18.30;11.27;;;;;;;;;;10380078;28;20087;-73
2022/05/15 02:29:37;;;;;;;19.27;10.50;;;;;;;;;;10380655;28;20132;-70
2022/05/15 02:34:37;;;;;;;18.13;10.65;;;;;;;;;;10397162;28;20026;-73
2022/05/15 02:39:37;;;;;;;16.75;11.18;;;;;;;;;;10397957;28;20041;-69
2022/05/15 02:44:37;;;;;;;17.57;10.90;;;;;;;;;;10397901;28;20311;-75
2022/05/15 02:54:57;;;;;;;23.58;12.23;;;;;;;;;;10397374;28;20025;-71
2022/05/15 02:59:57;;;;;;;20.05;11.50;;;;;;;;;;10379733;28;20607;-74
2022/05/15 03:04:58;;;;;;;19.13;11.80;;;;;;;;;;10379474;28;20025;-71
2022/05/15 03:09:58;;;;;;;19.43;12.97;;;;;;;;;;10379433;28;20287;-74
2022/05/15 03:14:59;;;;;;;24.90;11.50;;;;;;;;;;10397142;28;20033;-76
2022/05/15 03:19:59;;;;;;;20.65;10.70;;;;;;;;;;10379756;28;20025;-74
2022/05/15 03:24:59;;;;;;;13.03;9.03;;;;;;;;;;10380084;28;20517;-77
2022/05/15 03:30:00;;;;;;;16.35;9.20;;;;;;;;;;10379655;28;20083;-74
2022/05/15 03:35:00;;;;;;;15.68;9.63;;;;;;;;;;10379456;28;20427;-76
2022/05/15 03:40:00;;;;;;;13.27;9.82;;;;;;;;;;10379405;28;20480;-73
2022/05/15 03:45:01;;;;;;;21.67;10.35;;;;;;;;;;10398923;28;20521;-73
2022/05/15 03:50:01;;;;;;;22.17;9.55;;;;;;;;;;10386406;28;20496;-75
2022/05/15 03:55:03;;;;;;;16.75;8.35;;;;;;;;;;10387068;28;20053;-71
2022/05/15 04:00:06;;;;;;;23.73;8.43;;;;;;;;;;10385762;28;20040;-70
2022/05/15 04:05:07;;;;;;;21.25;8.90;;;;;;;;;;10385826;28;20087;-69
2022/05/15 04:10:07;;;;;;;17.35;9.20;;;;;;;;;;10369360;28;20499;-72
2022/05/15 04:15:08;;;;;;;17.23;9.38;;;;;;;;;;10386523;28;20037;-75
2022/05/15 04:20:09;;;;;;;12.25;8.88;;;;;;;;;;10385621;28;20017;-76
2022/05/15 04:25:13;;;;;;;27.08;6.88;;;;;;;;;;10385801;28;20021;-74
2022/05/15 04:30:21;;;;;;;11.63;7.65;;;;;;;;;;10384782;28;20656;-73
2022/05/15 04:35:21;;;;;;;11.52;8.18;;;;;;;;;;10385250;28;20499;-73
2022/05/15 04:40:22;;;;;;;14.15;8.43;;;;;;;;;;10384034;28;20030;-76
2022/05/15 04:45:22;;;;;;;10.60;6.87;;;;;;;;;;10385288;28;20017;-75
2022/05/15 04:50:23;;;;;;;20.27;7.80;;;;;;;;;;10383787;28;20276;-75
2022/05/15 04:55:23;;;;;;;13.73;7.87;;;;;;;;;;10400979;28;20291;-71
2022/05/15 05:00:23;;;;;;;16.27;7.43;;;;;;;;;;10381761;28;20279;-71
2022/05/15 05:05:27;;;;;;;14.05;7.55;;;;;;;;;;10383310;28;20096;-71
2022/05/15 05:10:27;;;;;;;10.18;6.35;;;;;;;;;;10354780;28;20045;-72
2022/05/15 05:15:28;;;;;;;11.70;6.15;;;;;;;;;;10383263;28;20037;-75
2022/05/15 05:20:28;;;;;;;8.93;6.47;;;;;;;;;;10372778;28;20029;-75
2022/05/15 05:25:28;;;;;;;9.05;6.07;;;;;;;;;;10369412;28;20029;-75
2022/05/15 05:30:28;;;;;;;13.77;6.28;;;;;;;;;;10362306;28;20033;-74
2022/05/15 05:35:29;;;;;;;13.43;5.83;;;;;;;;;;10383201;28;20037;-72
2022/05/15 05:40:29;;;;;;;9.82;6.30;;;;;;;;;;10368126;28;20490;-73
2022/05/15 05:45:30;;;;;;;15.23;6.17;;;;;;;;;;10365861;28;20037;-75
2022/05/15 05:50:30;;;;;;;9.88;5.53;;;;;;;;;;10358213;28;20087;-75
2022/05/15 05:55:31;;;;;;;25.33;4.93;;;;;;;;;;10367743;28;20488;-72
2022/05/15 06:00:32;;;;;;;11.52;4.50;;;;;;;;;;10364835;28;20401;-74
2022/05/15 06:05:33;;;;;;;13.45;5.55;;;;;;;;;;10360440;28;21269;-74
2022/05/15 06:10:33;;;;;;;9.25;4.63;;;;;;;;;;10373598;28;20060;-70
2022/05/15 06:15:34;;;;;;;6.72;3.90;;;;;;;;;;10397014;28;20592;-73
2022/05/15 06:20:35;;;;;;;7.28;3.97;;;;;;;;;;10405748;28;20029;-74
2022/05/15 06:25:35;;;;;;;5.43;3.00;;;;;;;;;;10407409;28;20029;-74
2022/05/15 06:30:37;;;;;;;8.10;3.50;;;;;;;;;;10409005;28;20048;-76
2022/05/15 06:35:37;;;;;;;10.70;3.70;;;;;;;;;;10400503;28;20026;-70
2022/05/15 06:40:38;;;;;;;5.45;2.65;;;;;;;;;;10410169;28;20048;-72
2022/05/15 06:45:38;;;;;;;11.48;3.70;;;;;;;;;;10402183;28;20037;-73
2022/05/15 06:50:39;;;;;;;16.98;4.18;;;;;;;;;;10397143;28;20037;-74
2022/05/15 07:01:15;;;;;;;13.20;3.55;;;;;;;;;;10473076;23;20049;-75
2022/05/15 07:06:16;;;;;;;11.88;3.08;;;;;;;;;;10459178;28;20045;-72
2022/05/15 07:11:16;;;;;;;6.77;2.67;;;;;;;;;;10459094;28;20094;-75
2022/05/15 07:16:16;;;;;;;5.03;1.90;;;;;;;;;;10457565;28;20039;-71
2022/05/15 07:21:17;;;;;;;6.25;2.28;;;;;;;;;;10457308;28;20029;-73
2022/05/15 07:26:17;;;;;;;3.60;2.33;;;;;;;;;;10427371;28;20037;-72
2022/05/15 07:31:18;;;;;;;3.07;2.10;;;;;;;;;;10431197;28;20032;-69
2022/05/15 07:36:19;;;;;;;5.55;1.90;;;;;;;;;;10469044;28;20107;-74
2022/05/15 07:41:19;;;;;;;6.38;1.95;;;;;;;;;;10484937;28;20024;-71
2022/05/15 07:46:19;;;;;;;6.85;2.28;;;;;;;;;;10465082;28;20162;-73
2022/05/15 07:51:20;;;;;;;11.90;1.93;;;;;;;;;;10464792;28;20031;-75
2022/05/15 07:56:20;;;;;;;6.80;2.13;;;;;;;;;;10482162;28;20024;-72
2022/05/15 08:01:21;;;;;;;3.30;1.65;;;;;;;;;;10486346;28;20194;-75
2022/05/15 08:11:41;;;;;;;3.88;2.30;;;;;;;;;;10486284;28;20028;-73
2022/05/15 08:16:41;;;;;;;4.72;2.38;;;;;;;;;;10484300;28;20021;-69
2022/05/15 08:27:00;;;;;;;8.05;2.20;;;;;;;;;;10485053;28;20024;-73
2022/05/15 08:32:00;;;;;;;4.17;1.40;;;;;;;;;;10482499;28;20346;-74
2022/05/15 08:37:01;;;;;;;4.30;2.57;;;;;;;;;;10482309;28;20028;-74
2022/05/15 08:42:18;;;;;;;3.50;2.00;;;;;;;;;;10484276;28;20029;-72
2022/05/15 08:47:27;;;;;;;6.10;2.15;;;;;;;;;;10483129;28;20103;-69
2022/05/15 08:52:41;;;;;;;5.55;2.08;;;;;;;;;;10466154;28;20060;-73
2022/05/15 08:57:56;;;;;;;9.20;2.08;;;;;;;;;;10483422;28;20625;-73
2022/05/15 09:03:16;;;;;;;7.10;1.70;;;;;;;;;;10481201;28;20036;-74
2022/05/15 09:08:35;;;;;;;3.15;1.90;;;;;;;;;;10464355;28;20020;-74
2022/05/15 09:13:38;;;;;;;10.95;1.60;;;;;;;;;;10495785;28;20078;-73
2022/05/15 09:18:38;;;;;;;1.98;1.30;;;;;;;;;;10479226;28;20100;-73
2022/05/15 09:23:49;;;;;;;4.93;1.17;;;;;;;;;;10480896;28;20024;-75
2022/05/15 09:28:51;;;;;;;5.93;1.40;;;;;;;;;;10495493;28;20033;-73
2022/05/15 09:34:00;;;;;;;3.15;1.15;;;;;;;;;;10478879;28;20504;-73
2022/05/15 09:39:18;;;;;;;1.92;1.10;;;;;;;;;;10479520;28;20023;-73
2022/05/15 09:44:25;;;;;;;2.25;0.80;;;;;;;;;;10477030;28;20117;-72
2022/05/15 09:49:26;;;;;;;6.47;1.20;;;;;;;;;;10461399;28;20028;-77
2022/05/15 09:54:47;;;;;;;3.75;1.13;;;;;;;;;;10461512;28;20339;-74
2022/05/15 09:59:55;;;;;;;5.25;0.95;;;;;;;;;;10420138;28;1165262;-74
2022/05/15 10:04:56;;;;;;;2.42;0.65;;;;;;;;;;10486254;28;20415;-74
2022/05/15 10:10:08;;;;;;;3.35;1.00;;;;;;;;;;10446939;28;20019;-74
2022/05/15 10:15:09;;;;;;;3.67;1.60;;;;;;;;;;10477924;28;20492;-75
2022/05/15 10:20:17;;;;;;;5.93;1.30;;;;;;;;;;10463770;28;20059;-75
2022/05/15 10:25:18;;;;;;;2.95;1.10;;;;;;;;;;10457807;28;20259;-73
2022/05/15 10:30:29;;;;;;;3.45;0.68;;;;;;;;;;10454352;28;20503;-78
2022/05/15 10:35:48;;;;;;;5.65;1.25;;;;;;;;;;10455377;28;20067;-77
2022/05/15 10:40:53;;;;;;;4.20;1.05;;;;;;;;;;10460096;28;20027;-70
2022/05/15 10:46:01;;;;;;;4.22;0.90;;;;;;;;;;10461677;28;20058;-73
2022/05/15 10:51:09;;;;;;;2.38;0.90;;;;;;;;;;10459522;28;20478;-71
2022/05/15 11:01:48;;;;;;;2.05;0.88;;;;;;;;;;10481691;28;20156;-71
2022/05/15 11:07:24;;;;;;;2.78;0.95;;;;;;;;;;10468078;28;20040;-74
2022/05/15 11:12:43;;;;;;;4.80;1.55;;;;;;;;;;10394684;28;20052;-71
2022/05/15 11:17:55;;;;;;;7.38;1.70;;;;;;;;;;10470052;28;20112;-72
2022/05/15 11:23:09;;;;;;;1.85;1.38;;;;;;;;;;10469377;28;20099;-74
2022/05/15 11:28:12;;;;;;;6.22;1.00;;;;;;;;;;10467698;28;20021;-70
2022/05/15 11:33:26;;;;;;;3.03;1.77;;;;;;;;;;10485078;28;20021;-76
2022/05/15 11:38:28;;;;;;;6.18;1.63;;;;;;;;;;10508636;22;20111;-76
2022/05/15 11:43:28;;;;;;;4.35;1.90;;;;;;;;;;10427741;28;20037;-72
2022/05/15 11:48:38;;;;;;;6.17;1.63;;;;;;;;;;10443463;28;20408;-73
2022/05/15 11:53:48;;;;;;;4.10;2.15;;;;;;;;;;10442897;28;20302;-72
2022/05/15 11:59:09;;;;;;;4.68;1.83;;;;;;;;;;10426819;28;20102;-73
2022/05/15 12:04:22;;;;;;;3.65;1.42;;;;;;;;;;10435141;28;20178;-74
2022/05/15 12:09:25;;;;;;;4.55;1.92;;;;;;;;;;10434110;28;20568;-76
2022/05/15 12:14:25;;;;;;;5.35;2.10;;;;;;;;;;10467897;28;20068;-76
2022/05/15 12:19:33;;;;;;;3.40;2.40;;;;;;;;;;10467451;28;20115;-75
2022/05/15 12:24:36;;;;;;;6.47;2.10;;;;;;;;;;10467471;28;20023;-74
2022/05/15 12:29:40;;;;;;;4.00;2.10;;;;;;;;;;10486188;28;20480;-74
2022/05/15 12:34:48;;;;;;;5.80;2.10;;;;;;;;;;10467189;28;20031;-76
2022/05/15 12:39:50;;;;;;;2.58;2.00;;;;;;;;;;10447394;28;20080;-75
2022/05/15 12:45:01;;;;;;;5.93;1.95;;;;;;;;;;10442911;28;20120;-74
2022/05/15 12:50:04;;;;;;;7.70;2.33;;;;;;;;;;10442576;28;20025;-75
2022/05/15 12:55:21;;;;;;;4.85;2.08;;;;;;;;;;10435601;28;20036;-76
2022/05/15 13:00:31;;;;;;;5.07;3.13;;;;;;;;;;10441014;28;20029;-77
2022/05/15 13:05:51;;;;;;;4.03;2.65;;;;;;;;;;10440972;28;20116;-72
2022/05/15 13:11:02;;;;;;;6.10;2.10;;;;;;;;;;10439568;28;20033;-72
2022/05/15 13:16:04;;;;;;;3.35;1.92;;;;;;;;;;10440418;28;20556;-76
2022/05/15 13:21:07;;;;;;;11.52;2.38;;;;;;;;;;10438755;28;20033;-73
2022/05/15 13:26:11;;;;;;;8.88;2.38;;;;;;;;;;10404690;28;20031;-73
2022/05/15 13:31:13;;;;;;;2.67;1.83;;;;;;;;;;10413939;28;20084;-74
2022/05/15 13:36:17;;;;;;;7.97;2.00;;;;;;;;;;10401724;28;20029;-71
2022/05/15 13:46:38;;;;;;;5.40;2.70;;;;;;;;;;10406604;28;20025;-74
2022/05/15 13:51:39;;;;;;;4.75;3.08;;;;;;;;;;10401746;28;20041;-74
2022/05/15 13:56:40;;;;;;;4.47;2.27;;;;;;;;;;10422362;28;20021;-75
2022/05/15 14:01:41;;;;;;;4.82;1.85;;;;;;;;;;10441795;23;20122;-75
2022/05/15 14:06:45;;;;;;;10.63;2.50;;;;;;;;;;10418662;28;20419;-76
2022/05/15 14:11:58;;;;;;;11.02;2.17;;;;;;;;;;10420033;28;20041;-75
2022/05/15 14:17:03;;;;;;;3.20;2.00;;;;;;;;;;10418729;28;20132;-72
2022/05/15 14:22:04;;;;;;;8.45;2.33;;;;;;;;;;10437267;28;20603;-70
2022/05/15 14:27:04;;;;;;;3.53;2.20;;;;;;;;;;10455157;28;20048;-71
2022/05/15 14:32:07;;;;;;;4.37;2.37;;;;;;;;;;10453778;28;20029;-75
2022/05/15 14:37:09;;;;;;;3.15;2.28;;;;;;;;;;10453908;28;20275;-75
2022/05/15 14:42:09;;;;;;;3.45;1.92;;;;;;;;;;10430912;28;20037;-68
2022/05/15 14:47:11;;;;;;;3.10;1.73;;;;;;;;;;10419620;28;20025;-73
2022/05/15 14:52:13;;;;;;;4.47;2.08;;;;;;;;;;10407094;28;20283;-72
2022/05/15 14:57:14;;;;;;;2.25;2.05;;;;;;;;;;10419215;28;20021;-71
2022/05/15 15:02:14;;;;;;;4.93;2.30;;;;;;;;;;10444564;23;20052;-74
2022/05/15 15:07:14;;;;;;;3.47;2.57;;;;;;;;;;10436222;28;20490;-72
2022/05/15 15:12:14;;;;;;;7.00;2.05;;;;;;;;;;10437542;28;20025;-72
2022/05/15 15:17:15;;;;;;;3.28;2.47;;;;;;;;;;10417572;28;20059;-72
2022/05/15 15:22:15;;;;;;;9.95;2.22;;;;;;;;;;10426324;28;20525;-69
2022/05/15 15:27:15;;;;;;;4.33;2.60;;;;;;;;;;10442638;28;20043;-71
2022/05/15 15:32:16;;;;;;;3.50;2.60;;;;;;;;;;10425272;28;20037;-71
2022/05/15 15:42:36;;;;;;;13.93;3.10;;;;;;;;;;10451692;28;20044;-71
2022/05/15 15:47:36;;;;;;;3.83;2.55;;;;;;;;;;10446460;28;20487;-70
2022/05/15 15:52:37;;;;;;;7.68;3.08;;;;;;;;;;10442979;28;20746;-69
2022/05/15 15:57:37;;;;;;;10.93;3.10;;;;;;;;;;10432301;28;20027;-75
2022/05/15 16:02:42;;;;;;;5.70;2.70;;;;;;;;;;10458649;28;20061;-75
2022/05/15 16:07:42;;;;;;;4.07;2.67;;;;;;;;;;10447823;28;20029;-71
2022/05/15 16:12:45;;;;;;;9.30;3.03;;;;;;;;;;10461631;28;20487;-72
2022/05/15 16:17:51;;;;;;;5.43;2.90;;;;;;;;;;10452765;28;20032;-77
2022/05/15 16:22:52;;;;;;;5.93;3.28;;;;;;;;;;10427451;28;20523;-72
2022/05/15 16:27:52;;;;;;;4.57;2.78;;;;;;;;;;10425876;28;20077;-70
2022/05/15 16:32:53;;;;;;;5.18;3.58;;;;;;;;;;10427435;28;20036;-73
2022/05/15 16:37:53;;;;;;;11.47;5.73;;;;;;;;;;10455379;28;20025;-72
2022/05/15 16:42:53;;;;;;;7.35;5.38;;;;;;;;;;10429398;28;20035;-74
2022/05/15 16:47:54;;;;;;;7.57;5.20;;;;;;;;;;10436852;28;20128;-75
2022/05/15 16:52:54;;;;;;;7.70;5.35;;;;;;;;;;10426198;28;20353;-72
2022/05/15 16:57:55;;;;;;;8.55;5.15;;;;;;;;;;10428416;28;20113;-74
2022/05/15 17:02:56;;;;;;;9.57;5.18;;;;;;;;;;10430550;28;20515;-73
2022/05/15 17:07:56;;;;;;;8.60;5.50;;;;;;;;;;10426985;28;20033;-75
2022/05/15 17:12:56;;;;;;;8.98;5.10;;;;;;;;;;10427506;28;20056;-74
2022/05/15 17:17:57;;;;;;;6.90;5.07;;;;;;;;;;10455077;28;20050;-76
2022/05/15 17:22:57;;;;;;;5.47;4.60;;;;;;;;;;10435464;28;20399;-75
2022/05/15 17:27:58;;;;;;;13.23;6.10;;;;;;;;;;10463479;28;20063;-72
2022/05/15 17:38:17;;;;;;;11.20;5.72;;;;;;;;;;10452719;28;20061;-72
2022/05/15 17:43:18;;;;;;;10.27;6.22;;;;;;;;;;10424058;28;20555;-72
2022/05/15 17:48:19;;;;;;;10.55;5.80;;;;;;;;;;10429515;28;20039;-73
2022/05/15 17:53:20;;;;;;;9.38;5.53;;;;;;;;;;10443450;28;20510;-77
2022/05/15 17:58:20;;;;;;;9.57;6.20;;;;;;;;;;10440104;28;20071;-75
2022/05/15 18:03:20;;;;;;;8.57;5.63;;;;;;;;;;10439528;28;20157;-75
2022/05/15 18:08:21;;;;;;;8.98;5.68;;;;;;;;;;10459485;28;20033;-74
2022/05/15 18:13:21;;;;;;;13.10;5.63;;;;;;;;;;10442356;28;20095;-70
2022/05/15 18:18:22;;;;;;;10.13;5.83;;;;;;;;;;10440216;28;20059;-70
2022/05/15 18:23:24;;;;;;;10.93;6.97;;;;;;;;;;10460535;28;20033;-70
2022/05/15 18:28:25;;;;;;;15.40;6.80;;;;;;;;;;10460748;28;20031;-71
2022/05/15 18:33:25;;;;;;;12.45;6.03;;;;;;;;;;10432543;28;20025;-70
2022/05/15 18:38:25;;;;;;;9.52;6.80;;;;;;;;;;10445576;28;20032;-70
2022/05/15 18:43:28;;;;;;;14.40;7.53;;;;;;;;;;10425588;28;20156;-72
2022/05/15 18:48:28;;;;;;;13.73;7.75;;;;;;;;;;10434999;28;20076;-71
2022/05/15 18:58:52;;;;;;;17.70;7.95;;;;;;;;;;10425732;28;20335;-72
2022/05/15 19:03:52;;;;;;;18.77;8.13;;;;;;;;;;10424640;28;20528;-72
2022/05/15 19:08:52;;;;;;;13.50;8.35;;;;;;;;;;10453276;28;20466;-72
2022/05/15 19:13:53;;;;;;;16.10;9.05;;;;;;;;;;10424805;28;20421;-78
2022/05/15 19:18:53;;;;;;;10.75;8.38;;;;;;;;;;10426788;28;20035;-76
2022/05/15 19:23:53;;;;;;;17.27;9.73;;;;;;;;;;10426269;28;20091;-78
2022/05/15 19:28:54;;;;;;;16.90;9.73;;;;;;;;;;10426669;28;20469;-77
2022/05/15 19:33:54;;;;;;;19.97;10.47;;;;;;;;;;10427741;28;20013;-74
2022/05/15 19:38:54;;;;;;;15.17;8.40;;;;;;;;;;10428102;28;20028;-76
2022/05/15 19:43:55;;;;;;;14.48;8.38;;;;;;;;;;10419649;28;20278;-75
2022/05/15 19:48:55;;;;;;;10.88;7.82;;;;;;;;;;10421812;28;20024;-73
2022/05/15 19:53:56;;;;;;;19.90;8.30;;;;;;;;;;10424656;28;20485;-72
2022/05/15 19:58:56;;;;;;;13.40;8.77;;;;;;;;;;10425048;28;20275;-73
2022/05/15 20:03:57;;;;;;;19.65;8.77;;;;;;;;;;10424836;28;20057;-71
2022/05/15 20:14:16;;;;;;;17.17;8.20;;;;;;;;;;10441638;28;20021;-76
2022/05/15 20:19:17;;;;;;;15.30;8.80;;;;;;;;;;10417160;28;20037;-72
2022/05/15 20:24:17;;;;;;;12.45;9.18;;;;;;;;;;10425744;28;20029;-77
2022/05/15 20:29:17;;;;;;;12.35;8.07;;;;;;;;;;10425779;28;20029;-74
2022/05/15 20:34:23;;;;;;;17.08;9.25;;;;;;;;;;10425342;28;20429;-72
2022/05/15 20:39:25;;;;;;;19.27;9.77;;;;;;;;;;10425386;28;20021;-74
2022/05/15 20:44:26;;;;;;;16.73;8.70;;;;;;;;;;10425267;28;20025;-74
2022/05/15 20:49:26;;;;;;;11.98;8.73;;;;;;;;;;10424996;28;20025;-75
2022/05/15 20:54:27;;;;;;;14.55;8.10;;;;;;;;;;10424840;28;20021;-76
2022/05/15 20:59:27;;;;;;;10.05;7.57;;;;;;;;;;10424716;28;20029;-74
2022/05/15 21:04:27;;;;;;;10.23;8.43;;;;;;;;;;10424350;28;20055;-75
2022/05/15 21:09:28;;;;;;;11.10;7.00;;;;;;;;;;10424323;28;20416;-71
2022/05/15 21:14:30;;;;;;;8.68;6.20;;;;;;;;;;10424086;28;20102;-74
2022/05/15 21:19:32;;;;;;;11.82;5.65;;;;;;;;;;10423835;28;20020;-77
2022/05/15 21:24:32;;;;;;;9.77;6.68;;;;;;;;;;10423202;28;20024;-75
2022/05/15 21:29:33;;;;;;;7.82;5.78;;;;;;;;;;10423636;28;20544;-75
2022/05/15 21:34:36;;;;;;;8.88;6.60;;;;;;;;;;10440404;28;20029;-74
2022/05/15 21:44:55;;;;;;;8.95;5.30;;;;;;;;;;10438838;28;20033;-72
2022/05/15 21:49:56;;;;;;;13.70;8.07;;;;;;;;;;10422216;28;20527;-74
2022/05/15 21:54:56;;;;;;;6.55;5.80;;;;;;;;;;10422583;28;20276;-74
2022/05/15 22:00:04;;;;;;;9.93;5.50;;;;;;;;;;10422082;28;20028;-72
2022/05/15 22:05:05;;;;;;;9.43;6.18;;;;;;;;;;10423735;28;20045;-72
2022/05/15 22:10:05;;;;;;;9.73;6.50;;;;;;;;;;10421999;28;20514;-77
2022/05/15 22:15:06;;;;;;;7.60;6.05;;;;;;;;;;10418606;28;20322;-73
2022/05/15 22:20:07;;;;;;;10.50;7.28;;;;;;;;;;10422357;28;20554;-77
2022/05/15 22:25:08;;;;;;;10.88;7.68;;;;;;;;;;10422430;28;20490;-72
2022/05/15 22:30:09;;;;;;;11.52;7.93;;;;;;;;;;10422602;28;20048;-75
2022/05/15 22:35:09;;;;;;;14.05;8.55;;;;;;;;;;10422677;28;20428;-73
2022/05/15 22:40:10;;;;;;;11.27;8.20;;;;;;;;;;10440257;28;20036;-73
2022/05/15 22:45:11;;;;;;;16.52;9.00;;;;;;;;;;10422609;28;20389;-70
2022/05/15 22:50:12;;;;;;;9.90;7.47;;;;;;;;;;10439293;28;20028;-71
2022/05/15 22:55:12;;;;;;;10.15;7.40;;;;;;;;;;10421990;28;20025;-73
2022/05/15 23:00:13;;;;;;;12.30;7.80;;;;;;;;;;10439442;28;20020;-72
2022/05/15 23:10:32;;;;;;;11.07;8.38;;;;;;;;;;10439861;28;20024;-75
2022/05/15 23:15:33;;;;;;;10.97;8.00;;;;;;;;;;10439149;28;20017;-77
2022/05/15 23:20:33;;;;;;;11.25;8.63;;;;;;;;;;10421234;28;20747;-77
2022/05/15 23:25:33;;;;;;;12.30;7.95;;;;;;;;;;10405043;28;20035;-77
2022/05/15 23:30:33;;;;;;;11.32;7.43;;;;;;;;;;10421120;28;20025;-72
2022/05/15 23:35:34;;;;;;;8.60;6.82;;;;;;;;;;10439537;28;20102;-74
2022/05/15 23:40:34;;;;;;;8.10;6.17;;;;;;;;;;10421253;28;20113;-77
2022/05/15 23:45:34;;;;;;;10.37;7.93;;;;;;;;;;10420797;28;20143;-78
2022/05/15 23:50:35;;;;;;;9.93;6.93;;;;;;;;;;10396145;28;20018;-75
2022/05/15 23:55:35;;;;;;;17.88;7.57;;;;;;;;;;10396252;28;20139;-76
